Time;durP1;ratioP1;P1;durP2;ratioP2;P2;SDS_P1;SDS_P2;PMS_P1;PMS_P2;Temp;Humidity;BMP_temperature;BMP_pressure;BME280_temperature;BME280_humidity;BME280_pressure;Samples;Min_cycle;Max_cycle;Signal;HPM_P1;HPM_P2
2022/10/17 00:00:00;;;;;;;0.4;0.4;;;;;;;14.5;100.0;101360;;;;
2022/10/17 00:01:00;;;;;;;0.4;0.4;;;;;;;14.6;100.0;101360;;;;
2022/10/17 00:02:00;;;;;;;0.4;0.4;;;;;;;14.6;100.0;101360;;;;
2022/10/17 00:03:00;;;;;;;0.4;0.4;;;;;;;14.7;100.0;101360;;;;
2022/10/17 00:04:00;;;;;;;0.4;0.4;;;;;;;14.7;100.0;101360;;;;
2022/10/17 00:05:00;;;;;;;0.4;0.4;;;;;;;14.7;100.0;101360;;;;
2022/10/17 00:06:04;;;;;;;0.5;0.5;;;;;;;14.7;100.0;101360;;;;
2022/10/17 00:07:00;;;;;;;0.5;0.5;;;;;;;14.8;100.0;101360;;;;
2022/10/17 00:08:00;;;;;;;0.5;0.5;;;;;;;14.8;100.0;101360;;;;
2022/10/17 00:09:00;;;;;;;0.5;0.5;;;;;;;14.8;100.0;101370;;;;
2022/10/17 00:10:00;;;;;;;0.5;0.5;;;;;;;14.8;100.0;101370;;;;
2022/10/17 00:11:02;;;;;;;0.5;0.5;;;;;;;14.9;100.0;101370;;;;
2022/10/17 00:12:01;;;;;;;0.5;0.5;;;;;;;14.9;100.0;101370;;;;
2022/10/17 00:13:00;;;;;;;0.5;0.5;;;;;;;14.9;100.0;101370;;;;
2022/10/17 00:14:00;;;;;;;0.5;0.5;;;;;;;14.9;100.0;101370;;;;
2022/10/17 00:15:01;;;;;;;0.5;0.5;;;;;;;14.9;100.0;101370;;;;
2022/10/17 00:16:00;;;;;;;0.5;0.5;;;;;;;14.9;100.0;101370;;;;
2022/10/17 00:17:00;;;;;;;0.5;0.5;;;;;;;14.9;100.0;101370;;;;
2022/10/17 00:18:00;;;;;;;0.5;0.5;;;;;;;14.9;100.0;101370;;;;
2022/10/17 00:19:00;;;;;;;0.5;0.5;;;;;;;14.8;100.0;101370;;;;
2022/10/17 00:20:00;;;;;;;0.5;0.5;;;;;;;14.8;100.0;101370;;;;
2022/10/17 00:21:00;;;;;;;0.5;0.5;;;;;;;14.9;100.0;101360;;;;
2022/10/17 00:22:00;;;;;;;0.5;0.5;;;;;;;14.9;100.0;101360;;;;
2022/10/17 00:23:00;;;;;;;0.5;0.5;;;;;;;14.9;100.0;101360;;;;
2022/10/17 00:24:00;;;;;;;0.5;0.5;;;;;;;14.9;100.0;101360;;;;
2022/10/17 00:25:00;;;;;;;0.5;0.5;;;;;;;14.8;100.0;101360;;;;
2022/10/17 00:26:00;;;;;;;0.5;0.5;;;;;;;14.8;100.0;101360;;;;
2022/10/17 00:27:00;;;;;;;0.5;0.5;;;;;;;14.9;100.0;101350;;;;
2022/10/17 00:28:00;;;;;;;0.5;0.5;;;;;;;14.9;100.0;101350;;;;
2022/10/17 00:29:00;;;;;;;0.5;0.5;;;;;;;15.0;100.0;101350;;;;
2022/10/17 00:30:00;;;;;;;0.5;0.5;;;;;;;15.0;100.0;101350;;;;
2022/10/17 00:31:01;;;;;;;0.5;0.5;;;;;;;14.9;100.0;101360;;;;
2022/10/17 00:32:00;;;;;;;0.5;0.5;;;;;;;14.9;100.0;101360;;;;
2022/10/17 00:33:00;;;;;;;0.5;0.5;;;;;;;14.8;100.0;101360;;;;
2022/10/17 00:34:00;;;;;;;0.5;0.5;;;;;;;14.8;100.0;101360;;;;
2022/10/17 00:35:00;;;;;;;0.5;0.5;;;;;;;14.9;100.0;101350;;;;
2022/10/17 00:36:11;;;;;;;0.5;0.5;;;;;;;14.9;100.0;101350;;;;
2022/10/17 00:37:00;;;;;;;0.5;0.5;;;;;;;14.8;100.0;101350;;;;
2022/10/17 00:38:00;;;;;;;0.5;0.5;;;;;;;14.8;100.0;101350;;;;
2022/10/17 00:39:00;;;;;;;0.5;0.5;;;;;;;14.8;100.0;101350;;;;
2022/10/17 00:40:00;;;;;;;0.5;0.5;;;;;;;14.8;100.0;101350;;;;
2022/10/17 00:41:00;;;;;;;0.5;0.5;;;;;;;14.8;100.0;101350;;;;
2022/10/17 00:42:00;;;;;;;0.5;0.5;;;;;;;14.8;100.0;101350;;;;
2022/10/17 00:43:00;;;;;;;0.5;0.5;;;;;;;14.8;100.0;101350;;;;
2022/10/17 00:44:01;;;;;;;0.5;0.5;;;;;;;14.8;100.0;101350;;;;
2022/10/17 00:45:00;;;;;;;0.5;0.5;;;;;;;14.9;100.0;101340;;;;
2022/10/17 00:46:00;;;;;;;0.5;0.5;;;;;;;14.9;100.0;101340;;;;
2022/10/17 00:47:02;;;;;;;0.5;0.5;;;;;;;14.7;100.0;101340;;;;
2022/10/17 00:48:03;;;;;;;0.5;0.5;;;;;;;14.7;100.0;101340;;;;
2022/10/17 00:49:05;;;;;;;0.5;0.5;;;;;;;14.7;100.0;101340;;;;
2022/10/17 00:50:03;;;;;;;0.5;0.5;;;;;;;14.7;100.0;101340;;;;
2022/10/17 00:51:00;;;;;;;0.5;0.5;;;;;;;14.8;100.0;101340;;;;
2022/10/17 00:52:02;;;;;;;0.5;0.5;;;;;;;14.8;100.0;101340;;;;
2022/10/17 00:53:01;;;;;;;0.5;0.5;;;;;;;14.7;100.0;101340;;;;
2022/10/17 00:54:01;;;;;;;0.5;0.5;;;;;;;14.7;100.0;101340;;;;
2022/10/17 00:55:02;;;;;;;0.5;0.5;;;;;;;14.8;100.0;101340;;;;
2022/10/17 00:56:00;;;;;;;0.5;0.5;;;;;;;14.8;100.0;101340;;;;
2022/10/17 00:57:00;;;;;;;0.5;0.5;;;;;;;14.8;100.0;101340;;;;
2022/10/17 00:58:01;;;;;;;0.5;0.5;;;;;;;14.8;100.0;101340;;;;
2022/10/17 00:59:00;;;;;;;0.5;0.5;;;;;;;14.8;100.0;101340;;;;
2022/10/17 01:00:01;;;;;;;0.5;0.5;;;;;;;14.8;100.0;101340;;;;
2022/10/17 01:01:00;;;;;;;0.5;0.5;;;;;;;14.9;100.0;101340;;;;
2022/10/17 01:02:04;;;;;;;0.5;0.5;;;;;;;14.9;100.0;101340;;;;
2022/10/17 01:03:00;;;;;;;0.5;0.5;;;;;;;14.9;100.0;101340;;;;
2022/10/17 01:04:00;;;;;;;0.5;0.5;;;;;;;14.9;100.0;101340;;;;
2022/10/17 01:05:00;;;;;;;0.5;0.5;;;;;;;14.8;100.0;101340;;;;
2022/10/17 01:06:00;;;;;;;0.4;0.4;;;;;;;14.8;100.0;101340;;;;
2022/10/17 01:07:00;;;;;;;0.4;0.4;;;;;;;14.9;100.0;101340;;;;
2022/10/17 01:08:00;;;;;;;0.4;0.4;;;;;;;14.9;100.0;101340;;;;
2022/10/17 01:09:00;;;;;;;0.4;0.4;;;;;;;14.9;100.0;101340;;;;
2022/10/17 01:10:00;;;;;;;0.4;0.4;;;;;;;14.9;100.0;101340;;;;
2022/10/17 01:11:07;;;;;;;0.4;0.4;;;;;;;14.9;100.0;101340;;;;
2022/10/17 01:12:06;;;;;;;0.4;0.4;;;;;;;14.9;100.0;101340;;;;
2022/10/17 01:13:07;;;;;;;0.4;0.4;;;;;;;14.9;100.0;101340;;;;
2022/10/17 01:14:00;;;;;;;0.4;0.4;;;;;;;14.9;100.0;101340;;;;
2022/10/17 01:15:10;;;;;;;0.4;0.4;;;;;;;14.8;100.0;101340;;;;
2022/10/17 01:16:10;;;;;;;0.4;0.4;;;;;;;14.8;100.0;101340;;;;
2022/10/17 01:17:00;;;;;;;0.4;0.4;;;;;;;14.7;100.0;101330;;;;
2022/10/17 01:18:07;;;;;;;0.4;0.4;;;;;;;14.7;100.0;101330;;;;
2022/10/17 01:19:08;;;;;;;0.4;0.4;;;;;;;14.8;100.0;101330;;;;
2022/10/17 01:20:10;;;;;;;0.4;0.4;;;;;;;14.8;100.0;101330;;;;
2022/10/17 01:21:10;;;;;;;0.4;0.4;;;;;;;14.8;100.0;101330;;;;
2022/10/17 01:22:00;;;;;;;0.4;0.4;;;;;;;14.8;100.0;101330;;;;
2022/10/17 01:23:10;;;;;;;0.4;0.4;;;;;;;14.9;100.0;101330;;;;
2022/10/17 01:24:10;;;;;;;0.4;0.4;;;;;;;14.9;100.0;101330;;;;
2022/10/17 01:25:00;;;;;;;0.4;0.4;;;;;;;14.9;100.0;101330;;;;
2022/10/17 01:26:10;;;;;;;0.5;0.5;;;;;;;14.9;100.0;101330;;;;
2022/10/17 01:27:10;;;;;;;0.5;0.5;;;;;;;14.9;100.0;101330;;;;
2022/10/17 01:28:10;;;;;;;0.5;0.5;;;;;;;14.9;100.0;101330;;;;
2022/10/17 01:29:03;;;;;;;0.5;0.5;;;;;;;14.9;100.0;101330;;;;
2022/10/17 01:30:10;;;;;;;0.5;0.5;;;;;;;14.9;100.0;101330;;;;
2022/10/17 01:31:05;;;;;;;0.5;0.5;;;;;;;14.9;100.0;101330;;;;
2022/10/17 01:32:03;;;;;;;0.5;0.5;;;;;;;14.9;100.0;101330;;;;
2022/10/17 01:33:10;;;;;;;0.5;0.5;;;;;;;15.0;100.0;101340;;;;
2022/10/17 01:34:04;;;;;;;0.5;0.5;;;;;;;15.0;100.0;101340;;;;
2022/10/17 01:35:00;;;;;;;0.5;0.5;;;;;;;15.0;100.0;101340;;;;
2022/10/17 01:36:06;;;;;;;0.5;0.5;;;;;;;15.0;100.0;101340;;;;
2022/10/17 01:37:07;;;;;;;0.5;0.5;;;;;;;15.0;100.0;101330;;;;
2022/10/17 01:38:06;;;;;;;0.5;0.5;;;;;;;15.0;100.0;101330;;;;
2022/10/17 01:39:08;;;;;;;0.5;0.5;;;;;;;15.0;100.0;101330;;;;
2022/10/17 01:40:05;;;;;;;0.5;0.5;;;;;;;15.0;100.0;101330;;;;
2022/10/17 01:41:09;;;;;;;0.5;0.5;;;;;;;14.9;100.0;101330;;;;
2022/10/17 01:42:07;;;;;;;0.5;0.5;;;;;;;14.9;100.0;101330;;;;
2022/10/17 01:43:04;;;;;;;0.5;0.5;;;;;;;14.9;100.0;101330;;;;
2022/10/17 01:44:10;;;;;;;0.5;0.5;;;;;;;14.9;100.0;101330;;;;
2022/10/17 01:45:05;;;;;;;0.5;0.5;;;;;;;14.9;100.0;101330;;;;
2022/10/17 01:46:10;;;;;;;0.6;0.6;;;;;;;14.9;100.0;101330;;;;
2022/10/17 01:47:09;;;;;;;0.6;0.6;;;;;;;15.0;100.0;101330;;;;
2022/10/17 01:48:10;;;;;;;0.6;0.6;;;;;;;15.0;100.0;101330;;;;
2022/10/17 01:49:01;;;;;;;0.6;0.6;;;;;;;15.0;100.0;101320;;;;
2022/10/17 01:50:04;;;;;;;0.6;0.6;;;;;;;15.0;100.0;101320;;;;
2022/10/17 01:51:06;;;;;;;0.6;0.6;;;;;;;14.9;100.0;101320;;;;
2022/10/17 01:52:05;;;;;;;0.6;0.6;;;;;;;14.9;100.0;101320;;;;
2022/10/17 01:53:04;;;;;;;0.6;0.6;;;;;;;15.0;100.0;101320;;;;
2022/10/17 01:54:02;;;;;;;0.6;0.6;;;;;;;15.0;100.0;101320;;;;
2022/10/17 01:55:05;;;;;;;0.6;0.6;;;;;;;15.2;100.0;101320;;;;
2022/10/17 01:56:02;;;;;;;0.6;0.6;;;;;;;15.2;100.0;101320;;;;
2022/10/17 01:57:03;;;;;;;0.6;0.6;;;;;;;15.2;100.0;101310;;;;
2022/10/17 01:58:04;;;;;;;0.6;0.6;;;;;;;15.2;100.0;101310;;;;
2022/10/17 01:59:03;;;;;;;0.6;0.6;;;;;;;15.1;100.0;101310;;;;
2022/10/17 02:00:01;;;;;;;0.6;0.6;;;;;;;15.1;100.0;101310;;;;
2022/10/17 02:01:02;;;;;;;0.6;0.6;;;;;;;15.2;100.0;101320;;;;
2022/10/17 02:02:00;;;;;;;0.6;0.6;;;;;;;15.2;100.0;101320;;;;
2022/10/17 02:03:03;;;;;;;0.6;0.6;;;;;;;15.1;100.0;101320;;;;
2022/10/17 02:04:01;;;;;;;0.6;0.6;;;;;;;15.1;100.0;101320;;;;
2022/10/17 02:05:01;;;;;;;0.6;0.6;;;;;;;15.2;100.0;101320;;;;
2022/10/17 02:06:00;;;;;;;0.4;0.4;;;;;;;15.2;100.0;101320;;;;
2022/10/17 02:07:08;;;;;;;0.4;0.4;;;;;;;15.3;100.0;101320;;;;
2022/10/17 02:08:00;;;;;;;0.4;0.4;;;;;;;15.3;100.0;101320;;;;
2022/10/17 02:09:01;;;;;;;0.4;0.4;;;;;;;15.2;100.0;101320;;;;
2022/10/17 02:10:00;;;;;;;0.4;0.4;;;;;;;15.2;100.0;101320;;;;
2022/10/17 02:11:03;;;;;;;0.4;0.4;;;;;;;15.2;100.0;101320;;;;
2022/10/17 02:12:10;;;;;;;0.4;0.4;;;;;;;15.2;100.0;101320;;;;
2022/10/17 02:13:00;;;;;;;0.4;0.4;;;;;;;15.2;100.0;101320;;;;
2022/10/17 02:14:10;;;;;;;0.4;0.4;;;;;;;15.2;100.0;101320;;;;
2022/10/17 02:15:07;;;;;;;0.4;0.4;;;;;;;15.3;100.0;101320;;;;
2022/10/17 02:16:10;;;;;;;0.4;0.4;;;;;;;15.3;100.0;101320;;;;
2022/10/17 02:17:00;;;;;;;0.4;0.4;;;;;;;15.2;100.0;101320;;;;
2022/10/17 02:18:10;;;;;;;0.4;0.4;;;;;;;15.2;100.0;101320;;;;
2022/10/17 02:19:10;;;;;;;0.4;0.4;;;;;;;15.3;100.0;101320;;;;
2022/10/17 02:20:09;;;;;;;0.4;0.4;;;;;;;15.3;100.0;101320;;;;
2022/10/17 02:21:05;;;;;;;0.4;0.4;;;;;;;15.3;100.0;101310;;;;
2022/10/17 02:22:00;;;;;;;0.4;0.4;;;;;;;15.3;100.0;101310;;;;
2022/10/17 02:23:08;;;;;;;0.4;0.4;;;;;;;15.2;100.0;101320;;;;
2022/10/17 02:24:06;;;;;;;0.4;0.4;;;;;;;15.2;100.0;101320;;;;
2022/10/17 02:25:00;;;;;;;0.4;0.4;;;;;;;15.3;100.0;101320;;;;
2022/10/17 02:26:10;;;;;;;0.6;0.6;;;;;;;15.3;100.0;101320;;;;
2022/10/17 02:27:05;;;;;;;0.6;0.6;;;;;;;15.3;100.0;101320;;;;
2022/10/17 02:28:06;;;;;;;0.6;0.6;;;;;;;15.3;100.0;101320;;;;
2022/10/17 02:29:10;;;;;;;0.6;0.6;;;;;;;15.3;100.0;101320;;;;
2022/10/17 02:30:05;;;;;;;0.6;0.6;;;;;;;15.3;100.0;101320;;;;
2022/10/17 02:31:03;;;;;;;0.6;0.6;;;;;;;15.3;100.0;101310;;;;
2022/10/17 02:32:04;;;;;;;0.6;0.6;;;;;;;15.3;100.0;101310;;;;
2022/10/17 02:33:05;;;;;;;0.6;0.6;;;;;;;15.3;100.0;101310;;;;
2022/10/17 02:34:02;;;;;;;0.6;0.6;;;;;;;15.3;100.0;101310;;;;
2022/10/17 02:35:01;;;;;;;0.6;0.6;;;;;;;15.3;100.0;101310;;;;
2022/10/17 02:36:04;;;;;;;0.6;0.6;;;;;;;15.3;100.0;101310;;;;
2022/10/17 02:37:02;;;;;;;0.6;0.6;;;;;;;15.2;100.0;101320;;;;
2022/10/17 02:38:01;;;;;;;0.6;0.6;;;;;;;15.2;100.0;101320;;;;
2022/10/17 02:39:01;;;;;;;0.6;0.6;;;;;;;15.3;100.0;101320;;;;
2022/10/17 02:40:01;;;;;;;0.6;0.6;;;;;;;15.3;100.0;101320;;;;
2022/10/17 02:41:00;;;;;;;0.6;0.6;;;;;;;15.2;100.0;101320;;;;
2022/10/17 02:42:02;;;;;;;0.6;0.6;;;;;;;15.2;100.0;101320;;;;
2022/10/17 02:43:00;;;;;;;0.6;0.6;;;;;;;15.2;100.0;101310;;;;
2022/10/17 02:44:02;;;;;;;0.6;0.6;;;;;;;15.2;100.0;101310;;;;
2022/10/17 02:45:00;;;;;;;0.6;0.6;;;;;;;15.3;100.0;101320;;;;
2022/10/17 02:46:00;;;;;;;0.5;0.5;;;;;;;15.3;100.0;101320;;;;
2022/10/17 02:47:08;;;;;;;0.5;0.5;;;;;;;15.3;100.0;101310;;;;
2022/10/17 02:48:10;;;;;;;0.5;0.5;;;;;;;15.3;100.0;101310;;;;
2022/10/17 02:49:02;;;;;;;0.5;0.5;;;;;;;15.4;100.0;101310;;;;
2022/10/17 02:50:00;;;;;;;0.5;0.5;;;;;;;15.4;100.0;101310;;;;
2022/10/17 02:51:01;;;;;;;0.5;0.5;;;;;;;15.2;100.0;101310;;;;
2022/10/17 02:52:04;;;;;;;0.5;0.5;;;;;;;15.2;100.0;101310;;;;
2022/10/17 02:53:03;;;;;;;0.5;0.5;;;;;;;15.3;100.0;101310;;;;
2022/10/17 02:54:10;;;;;;;0.5;0.5;;;;;;;15.3;100.0;101310;;;;
2022/10/17 02:55:05;;;;;;;0.5;0.5;;;;;;;15.3;100.0;101310;;;;
2022/10/17 02:56:05;;;;;;;0.5;0.5;;;;;;;15.3;100.0;101310;;;;
2022/10/17 02:57:06;;;;;;;0.5;0.5;;;;;;;15.2;100.0;101310;;;;
2022/10/17 02:58:03;;;;;;;0.5;0.5;;;;;;;15.2;100.0;101310;;;;
2022/10/17 02:59:02;;;;;;;0.5;0.5;;;;;;;15.1;100.0;101310;;;;
2022/10/17 03:00:01;;;;;;;0.5;0.5;;;;;;;15.1;100.0;101310;;;;
2022/10/17 03:01:00;;;;;;;0.5;0.5;;;;;;;15.3;100.0;101310;;;;
2022/10/17 03:02:02;;;;;;;0.5;0.5;;;;;;;15.3;100.0;101310;;;;
2022/10/17 03:03:00;;;;;;;0.5;0.5;;;;;;;15.2;100.0;101310;;;;
2022/10/17 03:04:04;;;;;;;0.5;0.5;;;;;;;15.2;100.0;101310;;;;
2022/10/17 03:05:00;;;;;;;0.5;0.5;;;;;;;15.3;100.0;101320;;;;
2022/10/17 03:06:00;;;;;;;0.7;0.7;;;;;;;15.3;100.0;101320;;;;
2022/10/17 03:07:00;;;;;;;0.7;0.7;;;;;;;15.2;100.0;101310;;;;
2022/10/17 03:08:00;;;;;;;0.7;0.7;;;;;;;15.2;100.0;101310;;;;
2022/10/17 03:09:00;;;;;;;0.7;0.7;;;;;;;15.3;100.0;101320;;;;
2022/10/17 03:10:00;;;;;;;0.7;0.7;;;;;;;15.3;100.0;101320;;;;
2022/10/17 03:11:00;;;;;;;0.7;0.7;;;;;;;15.3;100.0;101320;;;;
2022/10/17 03:12:00;;;;;;;0.7;0.7;;;;;;;15.3;100.0;101320;;;;
2022/10/17 03:13:00;;;;;;;0.7;0.7;;;;;;;15.4;100.0;101320;;;;
2022/10/17 03:14:00;;;;;;;0.7;0.7;;;;;;;15.4;100.0;101320;;;;
2022/10/17 03:15:00;;;;;;;0.7;0.7;;;;;;;15.4;100.0;101310;;;;
2022/10/17 03:16:00;;;;;;;0.7;0.7;;;;;;;15.4;100.0;101310;;;;
2022/10/17 03:17:00;;;;;;;0.7;0.7;;;;;;;15.4;100.0;101310;;;;
2022/10/17 03:18:00;;;;;;;0.7;0.7;;;;;;;15.4;100.0;101310;;;;
2022/10/17 03:19:00;;;;;;;0.7;0.7;;;;;;;15.4;100.0;101310;;;;
2022/10/17 03:20:00;;;;;;;0.7;0.7;;;;;;;15.4;100.0;101310;;;;
2022/10/17 03:21:00;;;;;;;0.7;0.7;;;;;;;15.4;100.0;101310;;;;
2022/10/17 03:22:00;;;;;;;0.7;0.7;;;;;;;15.4;100.0;101310;;;;
2022/10/17 03:23:00;;;;;;;0.7;0.7;;;;;;;15.4;100.0;101310;;;;
2022/10/17 03:24:00;;;;;;;0.7;0.7;;;;;;;15.4;100.0;101310;;;;
2022/10/17 03:25:00;;;;;;;0.7;0.7;;;;;;;15.2;100.0;101310;;;;
2022/10/17 03:26:04;;;;;;;0.4;0.4;;;;;;;15.2;100.0;101310;;;;
2022/10/17 03:27:00;;;;;;;0.4;0.4;;;;;;;15.4;100.0;101310;;;;
2022/10/17 03:28:00;;;;;;;0.4;0.4;;;;;;;15.4;100.0;101310;;;;
2022/10/17 03:29:00;;;;;;;0.4;0.4;;;;;;;15.4;100.0;101310;;;;
2022/10/17 03:30:00;;;;;;;0.4;0.4;;;;;;;15.4;100.0;101310;;;;
2022/10/17 03:31:05;;;;;;;0.4;0.4;;;;;;;15.3;100.0;101310;;;;
2022/10/17 03:32:00;;;;;;;0.4;0.4;;;;;;;15.3;100.0;101310;;;;
2022/10/17 03:33:00;;;;;;;0.4;0.4;;;;;;;15.5;100.0;101310;;;;
2022/10/17 03:34:00;;;;;;;0.4;0.4;;;;;;;15.5;100.0;101310;;;;
2022/10/17 03:35:00;;;;;;;0.4;0.4;;;;;;;15.3;100.0;101320;;;;
2022/10/17 03:36:03;;;;;;;0.4;0.4;;;;;;;15.3;100.0;101320;;;;
2022/10/17 03:37:00;;;;;;;0.4;0.4;;;;;;;15.5;100.0;101320;;;;
2022/10/17 03:38:00;;;;;;;0.4;0.4;;;;;;;15.5;100.0;101320;;;;
2022/10/17 03:39:00;;;;;;;0.4;0.4;;;;;;;15.4;100.0;101320;;;;
2022/10/17 03:40:00;;;;;;;0.4;0.4;;;;;;;15.4;100.0;101320;;;;
2022/10/17 03:41:00;;;;;;;0.4;0.4;;;;;;;15.5;100.0;101320;;;;
2022/10/17 03:42:00;;;;;;;0.4;0.4;;;;;;;15.5;100.0;101320;;;;
2022/10/17 03:43:00;;;;;;;0.4;0.4;;;;;;;15.4;100.0;101320;;;;
2022/10/17 03:44:00;;;;;;;0.4;0.4;;;;;;;15.4;100.0;101320;;;;
2022/10/17 03:45:00;;;;;;;0.4;0.4;;;;;;;15.4;100.0;101320;;;;
2022/10/17 03:46:00;;;;;;;0.5;0.5;;;;;;;15.4;100.0;101320;;;;
2022/10/17 03:47:00;;;;;;;0.5;0.5;;;;;;;15.5;100.0;101320;;;;
2022/10/17 03:48:00;;;;;;;0.5;0.5;;;;;;;15.5;100.0;101320;;;;
2022/10/17 03:49:00;;;;;;;0.5;0.5;;;;;;;15.5;100.0;101310;;;;
2022/10/17 03:50:00;;;;;;;0.5;0.5;;;;;;;15.5;100.0;101310;;;;
2022/10/17 03:51:01;;;;;;;0.5;0.5;;;;;;;15.4;100.0;101310;;;;
2022/10/17 03:52:00;;;;;;;0.5;0.5;;;;;;;15.4;100.0;101310;;;;
2022/10/17 03:53:00;;;;;;;0.5;0.5;;;;;;;15.4;100.0;101310;;;;
2022/10/17 03:54:00;;;;;;;0.5;0.5;;;;;;;15.4;100.0;101310;;;;
2022/10/17 03:55:00;;;;;;;0.5;0.5;;;;;;;15.4;100.0;101320;;;;
2022/10/17 03:56:08;;;;;;;0.5;0.5;;;;;;;15.4;100.0;101320;;;;
2022/10/17 03:57:00;;;;;;;0.5;0.5;;;;;;;15.4;100.0;101320;;;;
2022/10/17 03:58:00;;;;;;;0.5;0.5;;;;;;;15.4;100.0;101320;;;;
2022/10/17 03:59:00;;;;;;;0.5;0.5;;;;;;;15.5;100.0;101310;;;;
2022/10/17 04:00:00;;;;;;;0.5;0.5;;;;;;;15.5;100.0;101310;;;;
2022/10/17 04:01:04;;;;;;;0.5;0.5;;;;;;;15.5;100.0;101310;;;;
2022/10/17 04:02:00;;;;;;;0.5;0.5;;;;;;;15.5;100.0;101310;;;;
2022/10/17 04:03:00;;;;;;;0.5;0.5;;;;;;;15.6;100.0;101300;;;;
2022/10/17 04:04:00;;;;;;;0.5;0.5;;;;;;;15.6;100.0;101300;;;;
2022/10/17 04:06:00;;;;;;;0.3;0.3;;;;;;;15.5;100.0;101300;;;;
2022/10/17 04:07:00;;;;;;;0.3;0.3;;;;;;;15.5;100.0;101310;;;;
2022/10/17 04:08:04;;;;;;;0.3;0.3;;;;;;;15.5;100.0;101310;;;;
2022/10/17 04:09:00;;;;;;;0.3;0.3;;;;;;;15.6;100.0;101310;;;;
2022/10/17 04:10:00;;;;;;;0.3;0.3;;;;;;;15.6;100.0;101310;;;;
2022/10/17 04:11:01;;;;;;;0.3;0.3;;;;;;;15.6;100.0;101310;;;;
2022/10/17 04:12:00;;;;;;;0.3;0.3;;;;;;;15.6;100.0;101310;;;;
2022/10/17 04:13:00;;;;;;;0.3;0.3;;;;;;;15.7;100.0;101320;;;;
2022/10/17 04:14:00;;;;;;;0.3;0.3;;;;;;;15.7;100.0;101320;;;;
2022/10/17 04:15:00;;;;;;;0.3;0.3;;;;;;;15.6;100.0;101320;;;;
2022/10/17 04:16:01;;;;;;;0.3;0.3;;;;;;;15.6;100.0;101320;;;;
2022/10/17 04:17:00;;;;;;;0.3;0.3;;;;;;;15.6;100.0;101320;;;;
2022/10/17 04:18:00;;;;;;;0.3;0.3;;;;;;;15.6;100.0;101320;;;;
2022/10/17 04:19:00;;;;;;;0.3;0.3;;;;;;;15.6;100.0;101320;;;;
2022/10/17 04:20:00;;;;;;;0.3;0.3;;;;;;;15.6;100.0;101320;;;;
2022/10/17 04:21:01;;;;;;;0.3;0.3;;;;;;;15.6;100.0;101320;;;;
2022/10/17 04:22:01;;;;;;;0.3;0.3;;;;;;;15.6;100.0;101320;;;;
2022/10/17 04:23:00;;;;;;;0.3;0.3;;;;;;;15.6;100.0;101320;;;;
2022/10/17 04:24:00;;;;;;;0.3;0.3;;;;;;;15.6;100.0;101320;;;;
2022/10/17 04:25:00;;;;;;;0.3;0.3;;;;;;;15.6;100.0;101320;;;;
2022/10/17 04:26:02;;;;;;;0.5;0.5;;;;;;;15.6;100.0;101320;;;;
2022/10/17 04:27:00;;;;;;;0.5;0.5;;;;;;;15.7;100.0;101320;;;;
2022/10/17 04:28:00;;;;;;;0.5;0.5;;;;;;;15.7;100.0;101320;;;;
2022/10/17 04:29:00;;;;;;;0.5;0.5;;;;;;;15.7;100.0;101330;;;;
2022/10/17 04:30:00;;;;;;;0.5;0.5;;;;;;;15.7;100.0;101330;;;;
2022/10/17 04:31:03;;;;;;;0.5;0.5;;;;;;;15.7;100.0;101330;;;;
2022/10/17 04:32:00;;;;;;;0.5;0.5;;;;;;;15.7;100.0;101330;;;;
2022/10/17 04:33:00;;;;;;;0.5;0.5;;;;;;;15.8;100.0;101340;;;;
2022/10/17 04:34:00;;;;;;;0.5;0.5;;;;;;;15.8;100.0;101340;;;;
2022/10/17 04:35:00;;;;;;;0.5;0.5;;;;;;;15.8;100.0;101340;;;;
2022/10/17 04:36:01;;;;;;;0.5;0.5;;;;;;;15.8;100.0;101340;;;;
2022/10/17 04:37:00;;;;;;;0.5;0.5;;;;;;;15.8;100.0;101340;;;;
2022/10/17 04:38:00;;;;;;;0.5;0.5;;;;;;;15.8;100.0;101340;;;;
2022/10/17 04:39:02;;;;;;;0.5;0.5;;;;;;;15.9;100.0;101340;;;;
2022/10/17 04:40:00;;;;;;;0.5;0.5;;;;;;;15.9;100.0;101340;;;;
2022/10/17 04:41:02;;;;;;;0.5;0.5;;;;;;;15.9;100.0;101340;;;;
2022/10/17 04:42:00;;;;;;;0.5;0.5;;;;;;;15.9;100.0;101340;;;;
2022/10/17 04:43:00;;;;;;;0.5;0.5;;;;;;;15.8;100.0;101340;;;;
2022/10/17 04:44:00;;;;;;;0.5;0.5;;;;;;;15.8;100.0;101340;;;;
2022/10/17 04:45:00;;;;;;;0.5;0.5;;;;;;;15.9;100.0;101340;;;;
2022/10/17 04:46:01;;;;;;;0.3;0.3;;;;;;;15.9;100.0;101340;;;;
2022/10/17 04:47:00;;;;;;;0.3;0.3;;;;;;;16.0;100.0;101340;;;;
2022/10/17 04:48:00;;;;;;;0.3;0.3;;;;;;;16.0;100.0;101340;;;;
2022/10/17 04:49:00;;;;;;;0.3;0.3;;;;;;;16.0;100.0;101350;;;;
2022/10/17 04:50:00;;;;;;;0.3;0.3;;;;;;;16.0;100.0;101350;;;;
2022/10/17 04:51:01;;;;;;;0.3;0.3;;;;;;;15.9;100.0;101350;;;;
2022/10/17 04:52:00;;;;;;;0.3;0.3;;;;;;;15.9;100.0;101350;;;;
2022/10/17 04:53:00;;;;;;;0.3;0.3;;;;;;;16.0;100.0;101350;;;;
2022/10/17 04:54:00;;;;;;;0.3;0.3;;;;;;;16.0;100.0;101350;;;;
2022/10/17 04:55:00;;;;;;;0.3;0.3;;;;;;;16.0;100.0;101360;;;;
2022/10/17 04:56:00;;;;;;;0.3;0.3;;;;;;;16.0;100.0;101360;;;;
2022/10/17 04:57:00;;;;;;;0.3;0.3;;;;;;;15.9;100.0;101360;;;;
2022/10/17 04:58:00;;;;;;;0.3;0.3;;;;;;;15.9;100.0;101360;;;;
2022/10/17 04:59:00;;;;;;;0.3;0.3;;;;;;;16.0;100.0;101360;;;;
2022/10/17 05:00:00;;;;;;;0.3;0.3;;;;;;;16.0;100.0;101360;;;;
2022/10/17 05:01:03;;;;;;;0.3;0.3;;;;;;;15.9;100.0;101370;;;;
2022/10/17 05:02:00;;;;;;;0.3;0.3;;;;;;;15.9;100.0;101370;;;;
2022/10/17 05:03:00;;;;;;;0.3;0.3;;;;;;;16.0;100.0;101370;;;;
2022/10/17 05:04:00;;;;;;;0.3;0.3;;;;;;;16.0;100.0;101370;;;;
2022/10/17 05:05:00;;;;;;;0.3;0.3;;;;;;;15.9;100.0;101370;;;;
2022/10/17 05:06:04;;;;;;;0.3;0.3;;;;;;;15.9;100.0;101370;;;;
2022/10/17 05:07:00;;;;;;;0.3;0.3;;;;;;;15.9;100.0;101370;;;;
2022/10/17 05:08:00;;;;;;;0.3;0.3;;;;;;;15.9;100.0;101370;;;;
2022/10/17 05:09:00;;;;;;;0.3;0.3;;;;;;;16.0;100.0;101370;;;;
2022/10/17 05:10:00;;;;;;;0.3;0.3;;;;;;;16.0;100.0;101370;;;;
2022/10/17 05:11:00;;;;;;;0.3;0.3;;;;;;;16.0;100.0;101380;;;;
2022/10/17 05:12:00;;;;;;;0.3;0.3;;;;;;;16.0;100.0;101380;;;;
2022/10/17 05:13:00;;;;;;;0.3;0.3;;;;;;;15.8;100.0;101370;;;;
2022/10/17 05:14:00;;;;;;;0.3;0.3;;;;;;;15.8;100.0;101370;;;;
2022/10/17 05:15:00;;;;;;;0.3;0.3;;;;;;;15.8;100.0;101370;;;;
2022/10/17 05:16:00;;;;;;;0.3;0.3;;;;;;;15.8;100.0;101370;;;;
2022/10/17 05:17:00;;;;;;;0.3;0.3;;;;;;;15.7;100.0;101380;;;;
2022/10/17 05:18:00;;;;;;;0.3;0.3;;;;;;;15.7;100.0;101380;;;;
2022/10/17 05:19:00;;;;;;;0.3;0.3;;;;;;;15.8;100.0;101380;;;;
2022/10/17 05:20:00;;;;;;;0.3;0.3;;;;;;;15.8;100.0;101380;;;;
2022/10/17 05:21:01;;;;;;;0.3;0.3;;;;;;;15.8;100.0;101380;;;;
2022/10/17 05:22:00;;;;;;;0.3;0.3;;;;;;;15.8;100.0;101380;;;;
2022/10/17 05:23:00;;;;;;;0.3;0.3;;;;;;;15.9;100.0;101370;;;;
2022/10/17 05:24:00;;;;;;;0.3;0.3;;;;;;;15.9;100.0;101370;;;;
2022/10/17 05:25:00;;;;;;;0.4;0.4;;;;;;;15.9;100.0;101370;;;;
2022/10/17 05:26:00;;;;;;;0.4;0.4;;;;;;;15.9;100.0;101370;;;;
2022/10/17 05:27:00;;;;;;;0.4;0.4;;;;;;;15.9;100.0;101370;;;;
2022/10/17 05:28:00;;;;;;;0.4;0.4;;;;;;;15.9;100.0;101370;;;;
2022/10/17 05:29:01;;;;;;;0.4;0.4;;;;;;;16.0;100.0;101370;;;;
2022/10/17 05:30:00;;;;;;;0.4;0.4;;;;;;;16.0;100.0;101370;;;;
2022/10/17 05:31:02;;;;;;;0.4;0.4;;;;;;;15.9;100.0;101380;;;;
2022/10/17 05:32:00;;;;;;;0.4;0.4;;;;;;;15.9;100.0;101380;;;;
2022/10/17 05:33:00;;;;;;;0.4;0.4;;;;;;;15.8;100.0;101380;;;;
2022/10/17 05:34:01;;;;;;;0.4;0.4;;;;;;;15.8;100.0;101380;;;;
2022/10/17 05:35:00;;;;;;;0.4;0.4;;;;;;;16.0;100.0;101380;;;;
2022/10/17 05:36:00;;;;;;;0.4;0.4;;;;;;;16.0;100.0;101380;;;;
2022/10/17 05:37:00;;;;;;;0.4;0.4;;;;;;;15.8;100.0;101390;;;;
2022/10/17 05:38:00;;;;;;;0.4;0.4;;;;;;;15.8;100.0;101390;;;;
2022/10/17 05:39:00;;;;;;;0.4;0.4;;;;;;;15.9;100.0;101390;;;;
2022/10/17 05:40:00;;;;;;;0.4;0.4;;;;;;;15.9;100.0;101390;;;;
2022/10/17 05:41:02;;;;;;;0.4;0.4;;;;;;;15.8;100.0;101390;;;;
2022/10/17 05:42:00;;;;;;;0.4;0.4;;;;;;;15.8;100.0;101390;;;;
2022/10/17 05:43:00;;;;;;;0.4;0.4;;;;;;;15.8;100.0;101390;;;;
2022/10/17 05:44:05;;;;;;;0.4;0.4;;;;;;;15.8;100.0;101390;;;;
2022/10/17 05:45:00;;;;;;;0.3;0.3;;;;;;;16.0;100.0;101400;;;;
2022/10/17 05:46:04;;;;;;;0.3;0.3;;;;;;;16.0;100.0;101400;;;;
2022/10/17 05:47:00;;;;;;;0.3;0.3;;;;;;;15.9;100.0;101400;;;;
2022/10/17 05:48:00;;;;;;;0.3;0.3;;;;;;;15.9;100.0;101400;;;;
2022/10/17 05:49:00;;;;;;;0.3;0.3;;;;;;;15.9;100.0;101400;;;;
2022/10/17 05:50:00;;;;;;;0.3;0.3;;;;;;;15.9;100.0;101400;;;;
2022/10/17 05:51:01;;;;;;;0.3;0.3;;;;;;;15.8;100.0;101390;;;;
2022/10/17 05:52:00;;;;;;;0.3;0.3;;;;;;;15.8;100.0;101390;;;;
2022/10/17 05:53:00;;;;;;;0.3;0.3;;;;;;;15.9;100.0;101390;;;;
2022/10/17 05:54:00;;;;;;;0.3;0.3;;;;;;;15.9;100.0;101390;;;;
2022/10/17 05:55:00;;;;;;;0.3;0.3;;;;;;;15.8;100.0;101400;;;;
2022/10/17 05:56:02;;;;;;;0.3;0.3;;;;;;;15.8;100.0;101400;;;;
2022/10/17 05:57:00;;;;;;;0.3;0.3;;;;;;;15.9;100.0;101410;;;;
2022/10/17 05:58:00;;;;;;;0.3;0.3;;;;;;;15.9;100.0;101410;;;;
2022/10/17 05:59:01;;;;;;;0.3;0.3;;;;;;;15.8;100.0;101400;;;;
2022/10/17 06:00:00;;;;;;;0.3;0.3;;;;;;;15.8;100.0;101400;;;;
2022/10/17 06:01:01;;;;;;;0.3;0.3;;;;;;;15.9;100.0;101400;;;;
2022/10/17 06:02:00;;;;;;;0.3;0.3;;;;;;;15.9;100.0;101400;;;;
2022/10/17 06:03:00;;;;;;;0.3;0.3;;;;;;;15.9;100.0;101410;;;;
2022/10/17 06:04:00;;;;;;;0.3;0.3;;;;;;;15.9;100.0;101410;;;;
2022/10/17 06:05:00;;;;;;;0.4;0.4;;;;;;;15.9;100.0;101410;;;;
2022/10/17 06:06:09;;;;;;;0.4;0.4;;;;;;;15.9;100.0;101410;;;;
2022/10/17 06:07:00;;;;;;;0.4;0.4;;;;;;;16.0;100.0;101410;;;;
2022/10/17 06:08:02;;;;;;;0.4;0.4;;;;;;;16.0;100.0;101410;;;;
2022/10/17 06:09:00;;;;;;;0.4;0.4;;;;;;;16.0;100.0;101410;;;;
2022/10/17 06:10:00;;;;;;;0.4;0.4;;;;;;;16.0;100.0;101410;;;;
2022/10/17 06:11:00;;;;;;;0.4;0.4;;;;;;;16.1;100.0;101410;;;;
2022/10/17 06:12:00;;;;;;;0.4;0.4;;;;;;;16.1;100.0;101410;;;;
2022/10/17 06:13:00;;;;;;;0.4;0.4;;;;;;;15.9;100.0;101410;;;;
2022/10/17 06:14:00;;;;;;;0.4;0.4;;;;;;;15.9;100.0;101410;;;;
2022/10/17 06:15:00;;;;;;;0.4;0.4;;;;;;;16.1;100.0;101410;;;;
2022/10/17 06:16:00;;;;;;;0.4;0.4;;;;;;;16.1;100.0;101410;;;;
2022/10/17 06:17:00;;;;;;;0.4;0.4;;;;;;;15.9;100.0;101410;;;;
2022/10/17 06:18:00;;;;;;;0.4;0.4;;;;;;;15.9;100.0;101410;;;;
2022/10/17 06:19:00;;;;;;;0.4;0.4;;;;;;;16.0;100.0;101410;;;;
2022/10/17 06:20:00;;;;;;;0.4;0.4;;;;;;;16.0;100.0;101410;;;;
2022/10/17 06:21:02;;;;;;;0.4;0.4;;;;;;;15.9;100.0;101410;;;;
2022/10/17 06:22:00;;;;;;;0.4;0.4;;;;;;;15.9;100.0;101410;;;;
2022/10/17 06:23:00;;;;;;;0.4;0.4;;;;;;;15.9;100.0;101410;;;;